^^
Your Local Weather - Clay, NY Station Historical Data
Daily Summary for August 13, 2017 Units:  English    Metric   Both
« Previous Day
Next Day »
Daily Weekly Monthly Yearly Custom
  High: Low: Average:
Temperature: 77.8 °F 56.9 °F 67.6 °F
Dew Point: 64.3 °F 53.4 °F 58.6 °F
Humidity: 94% 45% 75%
Wind Speed: 3.0mph 0.0mph 0.8mph
Wind Gust: 9.0mph - -
Wind- - WNW
Pressure: 29.99 in 29.82 in -
Precipitation: 0.00 in    
Historical Graphs
 
 
Tabular Data for August 13, 2017
Time Temperature Dew Point Pressure Wind Wind Speed Wind Gust Humidity Rainfall Rate (Hourly) solar
00:04 64.3 °F 62.2 °F 29.82 in Calm     93% 0.00 in 0 W/m2
00:10 64.3 °F 62.2 °F 29.82 in Calm     93% 0.00 in 0 W/m2
00:14 64.2 °F 62.1 °F 29.82 in NNW 1.0 mph 1.0 mph 93% 0.00 in 0 W/m2
00:20 64.2 °F 61.8 °F 29.82 in NNW 1.0 mph 1.0 mph 92% 0.00 in 0 W/m2
00:26 64.2 °F 61.8 °F 29.83 in SSW 1.0 mph 3.0 mph 92% 0.00 in 0 W/m2
00:32 64.2 °F 61.8 °F 29.83 in SSW 2.0 mph 3.0 mph 92% 0.00 in 0 W/m2
00:38 64.3 °F 61.6 °F 29.83 in SSW 1.0 mph 3.0 mph 91% 0.00 in 0 W/m2
00:44 64.2 °F 61.5 °F 29.83 in SW 1.0 mph 4.0 mph 91% 0.00 in 0 W/m2
00:50 64.2 °F 61.2 °F 29.83 in SW 1.0 mph 1.0 mph 90% 0.00 in 0 W/m2
00:56 64.1 °F 61.1 °F 29.83 in SW 1.0 mph 1.0 mph 90% 0.00 in 0 W/m2
01:02 64.0 °F 61.0 °F 29.83 in SW 1.0 mph 1.0 mph 90% 0.00 in 0 W/m2
01:08 63.9 °F 60.9 °F 29.83 in SW 1.0 mph 2.0 mph 90% 0.00 in 0 W/m2
01:14 63.8 °F 60.8 °F 29.83 in SW 1.0 mph 1.0 mph 90% 0.00 in 0 W/m2
01:20 63.7 °F 60.7 °F 29.83 in SW 1.0 mph 1.0 mph 90% 0.00 in 0 W/m2
01:26 63.6 °F 60.6 °F 29.83 in SW 1.0 mph 1.0 mph 90% 0.00 in 0 W/m2
01:32 63.4 °F 60.1 °F 29.83 in SW 1.0 mph 4.0 mph 89% 0.00 in 0 W/m2
01:38 63.3 °F 60.3 °F 29.83 in WSW 1.0 mph 4.0 mph 90% 0.00 in 0 W/m2
01:44 63.3 °F 60.3 °F 29.83 in WSW 1.0 mph 2.0 mph 90% 0.00 in 0 W/m2
01:50 63.1 °F 60.1 °F 29.83 in Calm     90% 0.00 in 0 W/m2
01:56 63.0 °F 60.0 °F 29.83 in Calm   1.0 mph 90% 0.00 in 0 W/m2
02:02 62.9 °F 59.9 °F 29.83 in WSW 1.0 mph 1.0 mph 90% 0.00 in 0 W/m2
02:08 62.7 °F 59.7 °F 29.83 in Calm   1.0 mph 90% 0.00 in 0 W/m2
02:14 62.5 °F 59.5 °F 29.83 in Calm     90% 0.00 in 0 W/m2
02:20 62.4 °F 59.7 °F 29.84 in Calm     91% 0.00 in 0 W/m2
02:26 62.4 °F 59.7 °F 29.84 in Calm     91% 0.00 in 0 W/m2
02:32 62.3 °F 59.6 °F 29.85 in Calm     91% 0.00 in 0 W/m2
02:38 62.2 °F 59.5 °F 29.85 in Calm     91% 0.00 in 0 W/m2
02:44 62.2 °F 59.5 °F 29.85 in Calm     91% 0.00 in 0 W/m2
02:50 62.1 °F 59.7 °F 29.85 in Calm     92% 0.00 in 0 W/m2
02:56 62.0 °F 59.6 °F 29.85 in Calm     92% 0.00 in 0 W/m2
03:02 61.9 °F 59.5 °F 29.85 in Calm     92% 0.00 in 0 W/m2
03:08 61.8 °F 59.5 °F 29.85 in Calm     92% 0.00 in 0 W/m2
03:14 61.6 °F 59.3 °F 29.85 in Calm     92% 0.00 in 0 W/m2
03:20 61.5 °F 59.2 °F 29.85 in Calm     92% 0.00 in 0 W/m2
03:26 61.5 °F 59.2 °F 29.85 in Calm     92% 0.00 in 0 W/m2
03:34 61.6 °F 59.6 °F 29.85 in Calm     93% 0.00 in 0 W/m2
03:40 61.6 °F 59.6 °F 29.85 in Calm     93% 0.00 in 0 W/m2
03:46 61.6 °F 59.6 °F 29.85 in Calm     93% 0.00 in 0 W/m2
03:52 61.8 °F 59.8 °F 29.85 in Calm     93% 0.00 in 0 W/m2
03:58 61.9 °F 59.9 °F 29.85 in Calm   2.0 mph 93% 0.00 in 0 W/m2
04:04 61.9 °F 59.9 °F 29.85 in Calm   2.0 mph 93% 0.00 in 0 W/m2
04:10 62.0 °F 60.0 °F 29.85 in WSW 1.0 mph 1.0 mph 93% 0.00 in 0 W/m2
04:16 62.0 °F 60.0 °F 29.85 in Calm   1.0 mph 93% 0.00 in 0 W/m2
04:22 62.0 °F 60.0 °F 29.85 in Calm   1.0 mph 93% 0.00 in 0 W/m2
04:28 62.1 °F 60.1 °F 29.85 in Calm   1.0 mph 93% 0.00 in 0 W/m2
04:34 62.2 °F 60.2 °F 29.85 in Calm     93% 0.00 in 0 W/m2
04:40 62.2 °F 60.2 °F 29.86 in Calm     93% 0.00 in 0 W/m2
04:46 62.2 °F 60.2 °F 29.86 in Calm     93% 0.00 in 0 W/m2
04:52 62.2 °F 60.2 °F 29.86 in Calm     93% 0.00 in 0 W/m2
04:58 62.0 °F 60.0 °F 29.86 in Calm   1.0 mph 93% 0.00 in 0 W/m2
05:04 62.0 °F 60.0 °F 29.86 in Calm     93% 0.00 in 0 W/m2
05:10 61.9 °F 59.9 °F 29.86 in Calm     93% 0.00 in 0 W/m2
05:16 61.8 °F 59.8 °F 29.86 in Calm   1.0 mph 93% 0.00 in 0 W/m2
05:18 61.8 °F 59.8 °F 29.86 in Calm   1.0 mph 93% 0.00 in 0 W/m2
05:24 61.8 °F 59.8 °F 29.86 in Calm     93% 0.00 in 0 W/m2
05:30 61.8 °F 59.8 °F 29.87 in Calm     93% 0.00 in 0 W/m2
05:36 61.8 °F 59.8 °F 29.87 in Calm     93% 0.00 in 0 W/m2
05:42 61.8 °F 59.8 °F 29.88 in Calm     93% 0.00 in 0 W/m2
05:48 61.7 °F 59.7 °F 29.88 in Calm     93% 0.00 in 0 W/m2
05:54 61.7 °F 59.7 °F 29.88 in Calm     93% 0.00 in 0 W/m2
06:00 61.7 °F 59.7 °F 29.88 in Calm     93% 0.00 in 0 W/m2
06:06 61.6 °F 59.6 °F 29.88 in Calm     93% 0.00 in 0 W/m2
06:12 61.6 °F 59.6 °F 29.89 in Calm     93% 0.00 in 5 W/m2
06:18 61.6 °F 59.6 °F 29.88 in Calm     93% 0.00 in 7 W/m2
06:24 61.8 °F 59.8 °F 29.89 in Calm     93% 0.00 in 9 W/m2
06:30 61.9 °F 60.2 °F 29.89 in Calm     94% 0.00 in 12 W/m2
06:36 61.9 °F 59.9 °F 29.89 in Calm     93% 0.00 in 16 W/m2
06:42 61.9 °F 60.2 °F 29.90 in Calm     94% 0.00 in 19 W/m2
06:48 61.8 °F 60.1 °F 29.90 in Calm     94% 0.00 in 18 W/m2
06:54 61.9 °F 60.2 °F 29.90 in Calm   1.0 mph 94% 0.00 in 62 W/m2
07:00 62.2 °F 60.5 °F 29.90 in Calm     94% 0.00 in 74 W/m2
07:06 62.6 °F 60.8 °F 29.90 in Calm     94% 0.00 in 135 W/m2
07:12 62.9 °F 61.1 °F 29.90 in Calm     94% 0.00 in 165 W/m2
07:18 63.1 °F 61.3 °F 29.91 in WSW 1.0 mph 3.0 mph 94% 0.00 in 67 W/m2
07:24 63.3 °F 61.5 °F 29.91 in WSW 1.0 mph 1.0 mph 94% 0.00 in 69 W/m2
07:30 63.4 °F 61.6 °F 29.91 in Calm     94% 0.00 in 116 W/m2
07:36 63.8 °F 62.0 °F 29.91 in Calm     94% 0.00 in 121 W/m2
07:42 64.3 °F 62.5 °F 29.92 in Calm     94% 0.00 in 230 W/m2
07:48 64.3 °F 62.5 °F 29.92 in Calm   1.0 mph 94% 0.00 in 123 W/m2
07:54 64.8 °F 62.7 °F 29.92 in Calm     93% 0.00 in 232 W/m2
08:00 65.3 °F 63.2 °F 29.92 in Calm     93% 0.00 in 51 W/m2
08:06 65.6 °F 63.5 °F 29.92 in Calm     93% 0.00 in 90 W/m2
08:12 65.9 °F 63.5 °F 29.92 in Calm     92% 0.00 in 141 W/m2
08:18 66.1 °F 63.4 °F 29.93 in Calm     91% 0.00 in 62 W/m2
08:24 66.4 °F 63.4 °F 29.93 in Calm     90% 0.00 in 54 W/m2
08:30 66.7 °F 63.4 °F 29.93 in NNW 1.0 mph 1.0 mph 89% 0.00 in 86 W/m2
08:36 66.8 °F 63.1 °F 29.93 in Calm   2.0 mph 88% 0.00 in 93 W/m2
08:42 67.2 °F 63.2 °F 29.93 in SW 1.0 mph 1.0 mph 87% 0.00 in 269 W/m2
08:48 67.7 °F 63.4 °F 29.93 in NW 1.0 mph 1.0 mph 86% 0.00 in 271 W/m2
08:56 67.9 °F 62.5 °F 29.93 in Calm   1.0 mph 83% 0.00 in 116 W/m2
09:02 67.6 °F 62.3 °F 29.93 in Calm   4.0 mph 83% 0.00 in 134 W/m2
09:08 67.6 °F 62.3 °F 29.93 in NNW 1.0 mph 5.0 mph 83% 0.00 in 192 W/m2
09:14 67.9 °F 62.5 °F 29.93 in NW 1.0 mph 2.0 mph 83% 0.00 in 149 W/m2
09:20 68.0 °F 61.9 °F 29.93 in WNW 1.0 mph 1.0 mph 81% 0.00 in 153 W/m2
09:26 67.9 °F 61.5 °F 29.93 in NW 1.0 mph 3.0 mph 80% 0.00 in 185 W/m2
09:32 68.3 °F 62.2 °F 29.94 in NW 2.0 mph 3.0 mph 81% 0.00 in 693 W/m2
09:38 69.5 °F 62.3 °F 29.94 in NW 1.0 mph 4.0 mph 78% 0.00 in 359 W/m2
09:44 69.5 °F 62.3 °F 29.94 in WNW 1.0 mph 3.0 mph 78% 0.00 in 758 W/m2
09:50 69.9 °F 61.6 °F 29.94 in NW 2.0 mph 3.0 mph 75% 0.00 in 343 W/m2
09:56 70.5 °F 62.6 °F 29.94 in NNW 2.0 mph 3.0 mph 76% 0.00 in 202 W/m2
10:02 70.8 °F 64.3 °F 29.94 in North 1.0 mph 1.0 mph 80% 0.00 in 821 W/m2
10:08 70.9 °F 61.8 °F 29.94 in NNW 1.0 mph 1.0 mph 73% 0.00 in 153 W/m2
10:14 69.7 °F 61.4 °F 29.95 in NNW 1.0 mph 2.0 mph 75% 0.00 in 116 W/m2
10:20 69.0 °F 61.1 °F 29.94 in Calm     76% 0.00 in 104 W/m2
10:26 70.8 °F 62.5 °F 29.94 in NNW 1.0 mph 3.0 mph 75% 0.00 in 722 W/m2
10:32 71.1 °F 61.6 °F 29.95 in North 1.0 mph 2.0 mph 72% 0.00 in 95 W/m2
10:38 71.7 °F 60.6 °F 29.95 in North 2.0 mph 5.0 mph 68% 0.00 in 831 W/m2
10:44 71.9 °F 59.9 °F 29.95 in NW 3.0 mph 5.0 mph 66% 0.00 in 868 W/m2
10:50 71.9 °F 59.5 °F 29.95 in NW 3.0 mph 3.0 mph 65% 0.00 in 800 W/m2
10:56 73.0 °F 62.6 °F 29.95 in NW 3.0 mph 3.0 mph 70% 0.00 in 853 W/m2
11:02 74.6 °F 62.5 °F 29.95 in NW 1.0 mph 2.0 mph 66% 0.00 in 962 W/m2
11:08 74.1 °F 62.9 °F 29.96 in WSW 1.0 mph 2.0 mph 68% 0.00 in 1083 W/m2
11:14 73.5 °F 61.0 °F 29.96 in NW 1.0 mph 2.0 mph 65% 0.00 in 192 W/m2
11:20 72.5 °F 60.1 °F 29.96 in North 1.0 mph 1.0 mph 65% 0.00 in 149 W/m2
11:26 73.5 °F 61.9 °F 29.96 in North 1.0 mph 2.0 mph 67% 0.00 in 904 W/m2
11:32 74.7 °F 62.6 °F 29.96 in NNW 1.0 mph 1.0 mph 66% 0.00 in 986 W/m2
11:38 75.1 °F 61.2 °F 29.96 in North 2.0 mph 5.0 mph 62% 0.00 in 949 W/m2
11:46 75.8 °F 61.4 °F 29.96 in WNW 1.0 mph 1.0 mph 61% 0.00 in 946 W/m2
11:52 75.0 °F 59.2 °F 29.96 in WNW 1.0 mph 1.0 mph 58% 0.00 in 260 W/m2
11:58 74.1 °F 58.9 °F 29.96 in NW 1.0 mph 9.0 mph 59% 0.00 in 301 W/m2
12:04 73.5 °F 59.2 °F 29.96 in NNW 2.0 mph 4.0 mph 61% 0.00 in 417 W/m2
12:10 73.7 °F 60.3 °F 29.96 in NNW 1.0 mph 1.0 mph 63% 0.00 in 281 W/m2
12:16 74.7 °F 60.4 °F 29.96 in NW 1.0 mph 2.0 mph 61% 0.00 in 997 W/m2
12:22 75.8 °F 60.9 °F 29.96 in NW 2.0 mph 2.0 mph 60% 0.00 in 1093 W/m2
12:28 75.3 °F 59.5 °F 29.96 in NW 3.0 mph 5.0 mph 58% 0.00 in 329 W/m2
12:34 74.7 °F 59.9 °F 29.96 in WNW 2.0 mph 3.0 mph 60% 0.00 in 279 W/m2
12:40 73.6 °F 60.2 °F 29.96 in North 1.0 mph 1.0 mph 63% 0.00 in 322 W/m2
12:46 74.4 °F 59.6 °F 29.96 in NNE 1.0 mph 6.0 mph 60% 0.00 in 1002 W/m2
12:52 74.6 °F 57.9 °F 29.96 in NNE 3.0 mph 6.0 mph 56% 0.00 in 172 W/m2
12:58 74.9 °F 62.8 °F 29.96 in North 2.0 mph 6.0 mph 66% 0.00 in 1004 W/m2
13:04 76.0 °F 60.6 °F 29.96 in North 1.0 mph 3.0 mph 59% 0.00 in 1097 W/m2
13:10 76.7 °F 59.3 °F 29.96 in NNW 2.0 mph 2.0 mph 55% 0.00 in 1014 W/m2
13:16 76.2 °F 58.9 °F 29.96 in NW 2.0 mph 3.0 mph 55% 0.00 in 195 W/m2
13:22 75.2 °F 57.4 °F 29.95 in WNW 3.0 mph 5.0 mph 54% 0.00 in 1009 W/m2
13:28 75.6 °F 58.3 °F 29.95 in NNW 3.0 mph 5.0 mph 55% 0.00 in 158 W/m2
13:34 74.4 °F 61.0 °F 29.96 in NNW 1.0 mph 2.0 mph 63% 0.00 in 158 W/m2
13:40 75.8 °F 59.0 °F 29.96 in Calm   2.0 mph 56% 0.00 in 942 W/m2
13:46 76.5 °F 58.6 °F 29.96 in WNW 2.0 mph 5.0 mph 54% 0.00 in 977 W/m2
13:52 77.0 °F 60.1 °F 29.96 in NW 2.0 mph 4.0 mph 56% 0.00 in 1018 W/m2
13:58 77.5 °F 57.9 °F 29.96 in NNW 2.0 mph 4.0 mph 51% 0.00 in 958 W/m2
14:04 77.1 °F 59.7 °F 29.95 in North 2.0 mph 3.0 mph 55% 0.00 in 944 W/m2
14:10 77.5 °F 61.1 °F 29.95 in SW 2.0 mph 3.0 mph 57% 0.00 in 946 W/m2
14:16 77.1 °F 60.2 °F 29.95 in NW 1.0 mph 3.0 mph 56% 0.00 in 925 W/m2
14:22 77.5 °F 57.4 °F 29.95 in North 2.0 mph 3.0 mph 50% 0.00 in 926 W/m2
14:28 77.2 °F 58.7 °F 29.95 in NW 2.0 mph 3.0 mph 53% 0.00 in 895 W/m2
14:34 77.5 °F 57.9 °F 29.95 in West 1.0 mph 4.0 mph 51% 0.00 in 911 W/m2
14:40 77.5 °F 60.6 °F 29.95 in NNW 2.0 mph 2.0 mph 56% 0.00 in 879 W/m2
14:46 77.8 °F 59.8 °F 29.95 in NW 2.0 mph 5.0 mph 54% 0.00 in 868 W/m2
14:52 77.5 °F 58.5 °F 29.95 in NNE 2.0 mph 3.0 mph 52% 0.00 in 867 W/m2
14:58 77.5 °F 57.9 °F 29.95 in West 2.0 mph 4.0 mph 51% 0.00 in 853 W/m2
15:04 77.5 °F 57.4 °F 29.95 in NW 2.0 mph 2.0 mph 50% 0.00 in 905 W/m2
15:10 77.2 °F 57.7 °F 29.95 in NNE 1.0 mph 2.0 mph 51% 0.00 in 830 W/m2
15:16 77.8 °F 56.5 °F 29.96 in NNW 2.0 mph 3.0 mph 48% 0.00 in 812 W/m2
15:22 77.3 °F 56.6 °F 29.96 in NNW 3.0 mph 4.0 mph 49% 0.00 in 823 W/m2
15:29 76.6 °F 54.9 °F 29.96 in NNW 2.0 mph 4.0 mph 47% 0.00 in 770 W/m2
15:34 76.8 °F 56.8 °F 29.96 in NNW 3.0 mph 3.0 mph 50% 0.00 in 452 W/m2
15:40 77.3 °F 56.1 °F 29.96 in NNW 3.0 mph 3.0 mph 48% 0.00 in 768 W/m2
15:46 77.0 °F 56.4 °F 29.96 in WNW 3.0 mph 3.0 mph 49% 0.00 in 737 W/m2
15:52 77.8 °F 57.1 °F 29.96 in NW 2.0 mph 4.0 mph 49% 0.00 in 719 W/m2
15:58 77.7 °F 57.6 °F 29.96 in NNW 2.0 mph 4.0 mph 50% 0.00 in 703 W/m2
16:04 77.5 °F 56.8 °F 29.96 in SW 1.0 mph 3.0 mph 49% 0.00 in 691 W/m2
16:10 77.3 °F 54.9 °F 29.96 in North 2.0 mph 2.0 mph 46% 0.00 in 671 W/m2
16:16 76.8 °F 57.8 °F 29.96 in NW 2.0 mph 3.0 mph 52% 0.00 in 654 W/m2
16:22 77.1 °F 54.1 °F 29.96 in NW 1.0 mph 1.0 mph 45% 0.00 in 638 W/m2
16:28 77.2 °F 54.2 °F 29.97 in NW 1.0 mph 4.0 mph 45% 0.00 in 622 W/m2
16:34 76.8 °F 54.5 °F 29.96 in NW 2.0 mph 2.0 mph 46% 0.00 in 606 W/m2
16:40 76.8 °F 53.8 °F 29.97 in North 2.0 mph 2.0 mph 45% 0.00 in 592 W/m2
16:46 76.5 °F 57.0 °F 29.97 in NNE 2.0 mph 4.0 mph 51% 0.00 in 575 W/m2
16:52 76.9 °F 54.5 °F 29.96 in North 2.0 mph 3.0 mph 46% 0.00 in 561 W/m2
16:58 76.7 °F 55.0 °F 29.97 in NNW 1.0 mph 4.0 mph 47% 0.00 in 534 W/m2
17:04 76.3 °F 54.0 °F 29.97 in NNW 2.0 mph 3.0 mph 46% 0.00 in 218 W/m2
17:10 76.3 °F 54.6 °F 29.97 in NNW 2.0 mph 2.0 mph 47% 0.00 in 497 W/m2
17:16 75.8 °F 55.3 °F 29.97 in WNW 2.0 mph 4.0 mph 49% 0.00 in 304 W/m2
17:22 75.4 °F 54.3 °F 29.97 in West 2.0 mph 2.0 mph 48% 0.00 in 163 W/m2
17:28 75.2 °F 54.2 °F 29.97 in NW 2.0 mph 2.0 mph 48% 0.00 in 107 W/m2
17:34 74.9 °F 54.4 °F 29.97 in NNW 2.0 mph 3.0 mph 49% 0.00 in 46 W/m2
17:40 74.8 °F 54.4 °F 29.97 in WNW 2.0 mph 2.0 mph 49% 0.00 in 60 W/m2
17:46 74.6 °F 55.8 °F 29.97 in NW 2.0 mph 2.0 mph 52% 0.00 in 42 W/m2
17:52 74.4 °F 53.4 °F 29.97 in NW 2.0 mph 3.0 mph 48% 0.00 in 42 W/m2
18:00 74.3 °F 53.9 °F 29.97 in North 1.0 mph 1.0 mph 49% 0.00 in 42 W/m2
18:06 74.1 °F 54.3 °F 29.97 in NNW 1.0 mph 4.0 mph 50% 0.00 in 42 W/m2
18:12 73.9 °F 54.6 °F 29.97 in NNW 2.0 mph 2.0 mph 51% 0.00 in 42 W/m2
18:18 73.6 °F 53.8 °F 29.97 in NW 1.0 mph 2.0 mph 50% 0.00 in 40 W/m2
18:24 73.2 °F 53.4 °F 29.97 in North 2.0 mph 4.0 mph 50% 0.00 in 40 W/m2
18:30 73.0 °F 53.8 °F 29.97 in North 2.0 mph 2.0 mph 51% 0.00 in 44 W/m2
18:36 72.8 °F 54.1 °F 29.98 in North 1.0 mph 3.0 mph 52% 0.00 in 42 W/m2
18:42 72.7 °F 55.1 °F 29.97 in North 1.0 mph 1.0 mph 54% 0.00 in 39 W/m2
18:48 72.6 °F 54.0 °F 29.97 in NW 1.0 mph 1.0 mph 52% 0.00 in 37 W/m2
18:54 72.4 °F 53.8 °F 29.98 in NW 1.0 mph 1.0 mph 52% 0.00 in 33 W/m2
19:00 72.1 °F 54.0 °F 29.98 in NW 1.0 mph 1.0 mph 53% 0.00 in 40 W/m2
19:06 71.8 °F 54.3 °F 29.97 in NNW 1.0 mph 2.0 mph 54% 0.00 in 42 W/m2
19:12 71.5 °F 54.0 °F 29.97 in NNW 1.0 mph 1.0 mph 54% 0.00 in 33 W/m2
19:18 71.3 °F 54.8 °F 29.97 in Calm   1.0 mph 56% 0.00 in 32 W/m2
19:24 71.0 °F 55.0 °F 29.98 in Calm     57% 0.00 in 30 W/m2
19:30 70.6 °F 55.1 °F 29.97 in Calm     58% 0.00 in 28 W/m2
19:36 70.2 °F 57.0 °F 29.97 in Calm     63% 0.00 in 26 W/m2
19:42 69.6 °F 57.7 °F 29.97 in Calm     66% 0.00 in 19 W/m2
19:48 68.5 °F 56.7 °F 29.97 in Calm     66% 0.00 in 16 W/m2
19:54 67.6 °F 56.2 °F 29.96 in Calm     67% 0.00 in 12 W/m2
20:00 66.8 °F 55.9 °F 29.96 in Calm     68% 0.00 in 7 W/m2
20:06 66.3 °F 55.8 °F 29.97 in Calm     69% 0.00 in 0 W/m2
20:12 65.3 °F 55.3 °F 29.96 in Calm     70% 0.00 in 0 W/m2
20:18 64.6 °F 57.2 °F 29.96 in Calm     77% 0.00 in 0 W/m2
20:24 64.0 °F 56.6 °F 29.97 in Calm     77% 0.00 in 0 W/m2
20:30 63.4 °F 56.1 °F 29.96 in Calm     77% 0.00 in 0 W/m2
20:36 62.9 °F 55.6 °F 29.96 in Calm     77% 0.00 in 0 W/m2
20:42 62.4 °F 55.1 °F 29.97 in Calm     77% 0.00 in 0 W/m2
20:48 62.0 °F 55.1 °F 29.97 in Calm     78% 0.00 in 0 W/m2
20:54 61.7 °F 55.1 °F 29.98 in Calm     79% 0.00 in 0 W/m2
21:00 61.3 °F 54.7 °F 29.98 in Calm     79% 0.00 in 0 W/m2
21:06 60.9 °F 55.0 °F 29.98 in Calm     81% 0.00 in 0 W/m2
21:12 60.6 °F 55.1 °F 29.98 in Calm     82% 0.00 in 0 W/m2
21:18 60.3 °F 55.1 °F 29.98 in Calm     83% 0.00 in 0 W/m2
21:24 60.0 °F 55.2 °F 29.98 in Calm     84% 0.00 in 0 W/m2
21:30 59.9 °F 55.7 °F 29.98 in Calm     86% 0.00 in 0 W/m2
21:36 59.6 °F 55.1 °F 29.98 in Calm     85% 0.00 in 0 W/m2
21:42 59.4 °F 55.2 °F 29.99 in Calm     86% 0.00 in 0 W/m2
21:48 59.3 °F 54.8 °F 29.99 in Calm     85% 0.00 in 0 W/m2
21:54 59.2 °F 55.0 °F 29.99 in Calm     86% 0.00 in 0 W/m2
22:00 59.1 °F 54.9 °F 29.98 in Calm     86% 0.00 in 0 W/m2
22:06 58.9 °F 54.7 °F 29.99 in Calm     86% 0.00 in 0 W/m2
22:12 58.8 °F 54.9 °F 29.99 in Calm     87% 0.00 in 0 W/m2
22:18 58.8 °F 54.9 °F 29.99 in Calm     87% 0.00 in 0 W/m2
22:24 58.6 °F 54.7 °F 29.99 in Calm     87% 0.00 in 0 W/m2
22:30 58.5 °F 54.6 °F 29.99 in Calm     87% 0.00 in 0 W/m2
22:36 58.4 °F 54.5 °F 29.99 in Calm     87% 0.00 in 0 W/m2
22:42 58.4 °F 54.9 °F 29.99 in Calm     88% 0.00 in 0 W/m2
22:48 58.3 °F 54.8 °F 29.99 in Calm     88% 0.00 in 0 W/m2
22:54 58.2 °F 54.7 °F 29.99 in Calm     88% 0.00 in 0 W/m2
23:00 58.1 °F 54.6 °F 29.99 in Calm     88% 0.00 in 0 W/m2
23:06 58.0 °F 54.5 °F 29.99 in Calm     88% 0.00 in 0 W/m2
23:12 57.9 °F 54.7 °F 29.99 in Calm     89% 0.00 in 0 W/m2
23:18 57.7 °F 54.2 °F 29.99 in Calm     88% 0.00 in 0 W/m2
23:24 57.7 °F 54.5 °F 29.99 in Calm     89% 0.00 in 0 W/m2
23:30 57.6 °F 54.4 °F 29.99 in Calm     89% 0.00 in 0 W/m2
23:36 57.4 °F 54.2 °F 29.99 in Calm     89% 0.00 in 0 W/m2
23:42 57.2 °F 54.0 °F 29.99 in Calm     89% 0.00 in 0 W/m2
23:48 57.0 °F 53.8 °F 29.99 in Calm     89% 0.00 in 0 W/m2
23:54 56.9 °F 54.0 °F 29.99 in Calm     90% 0.00 in 0 W/m2
Country Meadow, Clay, NY, USA
Compliments of Weather Underground - 2 mb